sensor_id;sensor_type;location;lat;lon;timestamp;temperature;humidity
41944;DHT22;27636;52.610;13.244;2024-02-21T00:00:37;7.80;99.90
41944;DHT22;27636;52.610;13.244;2024-02-21T00:05:41;7.70;99.90
41944;DHT22;27636;52.610;13.244;2024-02-21T00:10:47;7.80;99.90
41944;DHT22;27636;52.610;13.244;2024-02-21T00:15:51;7.90;99.90
41944;DHT22;27636;52.610;13.244;2024-02-21T00:20:55;7.80;99.90
41944;DHT22;27636;52.610;13.244;2024-02-21T00:26:02;7.80;99.90
41944;DHT22;27636;52.610;13.244;2024-02-21T00:31:06;7.70;99.90
41944;DHT22;27636;52.610;13.244;2024-02-21T00:36:10;7.70;99.90
41944;DHT22;27636;52.610;13.244;2024-02-21T00:41:16;7.80;99.90
41944;DHT22;27636;52.610;13.244;2024-02-21T00:46:19;7.70;99.90
41944;DHT22;27636;52.610;13.244;2024-02-21T00:51:24;7.80;99.90
41944;DHT22;27636;52.610;13.244;2024-02-21T00:56:29;7.80;99.90
41944;DHT22;27636;52.610;13.244;2024-02-21T01:01:34;7.70;99.90
41944;DHT22;27636;52.610;13.244;2024-02-21T01:06:38;7.80;99.90
41944;DHT22;27636;52.610;13.244;2024-02-21T01:11:44;7.70;99.90
41944;DHT22;27636;52.610;13.244;2024-02-21T01:16:48;7.80;99.90
41944;DHT22;27636;52.610;13.244;2024-02-21T01:21:52;8.00;99.90
41944;DHT22;27636;52.610;13.244;2024-02-21T01:26:57;8.00;99.90
41944;DHT22;27636;52.610;13.244;2024-02-21T01:32:01;8.00;99.90
41944;DHT22;27636;52.610;13.244;2024-02-21T01:37:06;8.10;99.90
41944;DHT22;27636;52.610;13.244;2024-02-21T01:42:13;8.20;99.90
41944;DHT22;27636;52.610;13.244;2024-02-21T01:47:17;8.30;99.90
41944;DHT22;27636;52.610;13.244;2024-02-21T01:52:21;8.30;99.90
41944;DHT22;27636;52.610;13.244;2024-02-21T01:57:27;8.20;99.90
41944;DHT22;27636;52.610;13.244;2024-02-21T02:02:33;8.20;99.90
41944;DHT22;27636;52.610;13.244;2024-02-21T02:07:38;8.20;99.90
41944;DHT22;27636;52.610;13.244;2024-02-21T02:12:43;8.10;99.90
41944;DHT22;27636;52.610;13.244;2024-02-21T02:17:47;8.00;99.90
41944;DHT22;27636;52.610;13.244;2024-02-21T02:22:53;8.10;99.90
41944;DHT22;27636;52.610;13.244;2024-02-21T02:27:59;7.80;99.90
41944;DHT22;27636;52.610;13.244;2024-02-21T02:33:04;7.80;99.90
41944;DHT22;27636;52.610;13.244;2024-02-21T02:38:12;7.70;99.90
41944;DHT22;27636;52.610;13.244;2024-02-21T02:43:22;7.60;99.90
41944;DHT22;27636;52.610;13.244;2024-02-21T02:48:27;7.60;99.90
41944;DHT22;27636;52.610;13.244;2024-02-21T02:53:31;7.50;99.90
41944;DHT22;27636;52.610;13.244;2024-02-21T02:58:37;7.70;99.90
41944;DHT22;27636;52.610;13.244;2024-02-21T03:03:41;7.50;99.90
41944;DHT22;27636;52.610;13.244;2024-02-21T03:08:47;7.50;99.90
41944;DHT22;27636;52.610;13.244;2024-02-21T03:13:52;7.50;99.90
41944;DHT22;27636;52.610;13.244;2024-02-21T03:18:56;7.60;99.90
41944;DHT22;27636;52.610;13.244;2024-02-21T03:24:00;7.60;99.90
41944;DHT22;27636;52.610;13.244;2024-02-21T03:29:05;7.50;99.90
41944;DHT22;27636;52.610;13.244;2024-02-21T03:34:11;7.50;99.90
41944;DHT22;27636;52.610;13.244;2024-02-21T03:39:17;7.50;99.90
41944;DHT22;27636;52.610;13.244;2024-02-21T03:44:27;7.40;99.90
41944;DHT22;27636;52.610;13.244;2024-02-21T03:49:31;7.30;99.90
41944;DHT22;27636;52.610;13.244;2024-02-21T03:54:37;7.50;99.90
41944;DHT22;27636;52.610;13.244;2024-02-21T03:59:43;7.50;99.90
41944;DHT22;27636;52.610;13.244;2024-02-21T04:04:47;7.40;99.90
41944;DHT22;27636;52.610;13.244;2024-02-21T04:09:54;7.50;99.90
41944;DHT22;27636;52.610;13.244;2024-02-21T04:15:00;7.50;99.90
41944;DHT22;27636;52.610;13.244;2024-02-21T04:20:05;7.60;99.90
41944;DHT22;27636;52.610;13.244;2024-02-21T04:25:18;7.50;99.90
41944;DHT22;27636;52.610;13.244;2024-02-21T04:30:25;7.40;99.90
41944;DHT22;27636;52.610;13.244;2024-02-21T04:35:29;7.50;99.90
41944;DHT22;27636;52.610;13.244;2024-02-21T04:40:33;7.40;99.90
41944;DHT22;27636;52.610;13.244;2024-02-21T04:45:39;7.40;99.90
41944;DHT22;27636;52.610;13.244;2024-02-21T04:50:44;7.50;99.90
41944;DHT22;27636;52.610;13.244;2024-02-21T04:55:49;7.40;99.90
41944;DHT22;27636;52.610;13.244;2024-02-21T05:00:54;7.40;99.90
41944;DHT22;27636;52.610;13.244;2024-02-21T05:05:59;7.50;99.90
41944;DHT22;27636;52.610;13.244;2024-02-21T05:11:03;7.50;99.90
41944;DHT22;27636;52.610;13.244;2024-02-21T05:16:10;7.60;99.90
41944;DHT22;27636;52.610;13.244;2024-02-21T05:21:15;7.60;99.90
41944;DHT22;27636;52.610;13.244;2024-02-21T05:26:22;7.50;99.90
41944;DHT22;27636;52.610;13.244;2024-02-21T05:31:43;7.50;99.90
41944;DHT22;27636;52.610;13.244;2024-02-21T05:36:58;7.50;99.90
41944;DHT22;27636;52.610;13.244;2024-02-21T05:42:03;7.50;99.90
41944;DHT22;27636;52.610;13.244;2024-02-21T05:47:09;7.50;99.90
41944;DHT22;27636;52.610;13.244;2024-02-21T05:52:15;7.50;99.90
41944;DHT22;27636;52.610;13.244;2024-02-21T05:57:20;7.50;99.90
41944;DHT22;27636;52.610;13.244;2024-02-21T06:02:25;7.60;99.90
41944;DHT22;27636;52.610;13.244;2024-02-21T06:07:29;7.60;99.90
41944;DHT22;27636;52.610;13.244;2024-02-21T06:12:33;7.50;99.90
41944;DHT22;27636;52.610;13.244;2024-02-21T06:17:38;7.70;99.90
41944;DHT22;27636;52.610;13.244;2024-02-21T06:22:42;7.60;99.90
41944;DHT22;27636;52.610;13.244;2024-02-21T06:27:46;7.50;99.90
41944;DHT22;27636;52.610;13.244;2024-02-21T06:32:51;7.70;99.90
41944;DHT22;27636;52.610;13.244;2024-02-21T06:37:56;7.60;99.90
41944;DHT22;27636;52.610;13.244;2024-02-21T06:43:01;7.70;99.90
41944;DHT22;27636;52.610;13.244;2024-02-21T06:48:09;7.90;99.90
41944;DHT22;27636;52.610;13.244;2024-02-21T06:53:14;7.80;99.90
41944;DHT22;27636;52.610;13.244;2024-02-21T06:58:19;7.90;99.90
41944;DHT22;27636;52.610;13.244;2024-02-21T07:03:24;7.80;99.90
41944;DHT22;27636;52.610;13.244;2024-02-21T07:08:28;7.80;99.90
41944;DHT22;27636;52.610;13.244;2024-02-21T07:13:34;7.90;99.90
41944;DHT22;27636;52.610;13.244;2024-02-21T07:18:39;8.00;99.90
41944;DHT22;27636;52.610;13.244;2024-02-21T07:23:44;8.00;99.90
41944;DHT22;27636;52.610;13.244;2024-02-21T07:28:48;8.10;99.90
41944;DHT22;27636;52.610;13.244;2024-02-21T07:33:55;8.20;99.90
41944;DHT22;27636;52.610;13.244;2024-02-21T07:38:59;8.20;99.90
41944;DHT22;27636;52.610;13.244;2024-02-21T07:44:03;8.30;99.90
41944;DHT22;27636;52.610;13.244;2024-02-21T07:49:09;8.20;99.90
41944;DHT22;27636;52.610;13.244;2024-02-21T07:54:13;8.20;99.90
41944;DHT22;27636;52.610;13.244;2024-02-21T07:59:20;8.40;99.90
41944;DHT22;27636;52.610;13.244;2024-02-21T08:04:26;8.40;99.90
41944;DHT22;27636;52.610;13.244;2024-02-21T08:09:30;8.40;99.90
41944;DHT22;27636;52.610;13.244;2024-02-21T08:14:37;8.50;99.90
41944;DHT22;27636;52.610;13.244;2024-02-21T08:19:43;8.60;99.90
41944;DHT22;27636;52.610;13.244;2024-02-21T08:24:47;8.50;99.90
41944;DHT22;27636;52.610;13.244;2024-02-21T08:29:51;8.70;99.90
41944;DHT22;27636;52.610;13.244;2024-02-21T08:35:04;8.90;99.90
41944;DHT22;27636;52.610;13.244;2024-02-21T08:40:09;9.20;99.90
41944;DHT22;27636;52.610;13.244;2024-02-21T08:45:13;9.30;99.90
41944;DHT22;27636;52.610;13.244;2024-02-21T08:50:19;9.20;99.90
41944;DHT22;27636;52.610;13.244;2024-02-21T08:55:31;9.40;99.90
41944;DHT22;27636;52.610;13.244;2024-02-21T09:00:35;9.20;99.90
41944;DHT22;27636;52.610;13.244;2024-02-21T09:05:41;9.30;99.90
41944;DHT22;27636;52.610;13.244;2024-02-21T09:10:46;9.30;99.90
41944;DHT22;27636;52.610;13.244;2024-02-21T09:15:50;9.50;99.90
41944;DHT22;27636;52.610;13.244;2024-02-21T09:20:55;9.40;99.90
41944;DHT22;27636;52.610;13.244;2024-02-21T09:26:01;9.50;99.90
41944;DHT22;27636;52.610;13.244;2024-02-21T09:31:07;9.80;99.90
41944;DHT22;27636;52.610;13.244;2024-02-21T09:36:13;10.10;99.90
41944;DHT22;27636;52.610;13.244;2024-02-21T09:41:18;10.40;99.90
41944;DHT22;27636;52.610;13.244;2024-02-21T09:46:39;10.30;99.90
41944;DHT22;27636;52.610;13.244;2024-02-21T09:51:49;10.20;99.90
41944;DHT22;27636;52.610;13.244;2024-02-21T09:56:54;10.40;99.90
41944;DHT22;27636;52.610;13.244;2024-02-21T10:01:58;10.50;99.90
41944;DHT22;27636;52.610;13.244;2024-02-21T10:07:07;10.60;99.90
41944;DHT22;27636;52.610;13.244;2024-02-21T10:12:12;10.50;99.90
41944;DHT22;27636;52.610;13.244;2024-02-21T10:17:17;10.60;99.90
41944;DHT22;27636;52.610;13.244;2024-02-21T10:22:24;10.90;99.90
41944;DHT22;27636;52.610;13.244;2024-02-21T10:27:31;11.00;99.90
41944;DHT22;27636;52.610;13.244;2024-02-21T10:32:37;11.10;99.90
41944;DHT22;27636;52.610;13.244;2024-02-21T10:37:54;10.90;99.90
41944;DHT22;27636;52.610;13.244;2024-02-21T10:43:01;10.70;99.90
41944;DHT22;27636;52.610;13.244;2024-02-21T10:48:08;10.60;99.90
41944;DHT22;27636;52.610;13.244;2024-02-21T10:53:22;10.70;99.90
41944;DHT22;27636;52.610;13.244;2024-02-21T10:58:30;10.60;99.90
41944;DHT22;27636;52.610;13.244;2024-02-21T11:03:37;10.60;99.90
41944;DHT22;27636;52.610;13.244;2024-02-21T11:08:43;10.60;99.90
41944;DHT22;27636;52.610;13.244;2024-02-21T11:13:48;10.90;99.90
41944;DHT22;27636;52.610;13.244;2024-02-21T11:18:52;11.40;99.90
41944;DHT22;27636;52.610;13.244;2024-02-21T11:24:10;11.90;99.90
41944;DHT22;27636;52.610;13.244;2024-02-21T11:29:23;11.80;99.90
41944;DHT22;27636;52.610;13.244;2024-02-21T11:34:27;12.10;99.90
41944;DHT22;27636;52.610;13.244;2024-02-21T11:39:32;12.20;99.90
41944;DHT22;27636;52.610;13.244;2024-02-21T11:44:37;12.20;99.90
41944;DHT22;27636;52.610;13.244;2024-02-21T11:49:46;12.50;99.90
41944;DHT22;27636;52.610;13.244;2024-02-21T11:54:56;12.40;99.90
41944;DHT22;27636;52.610;13.244;2024-02-21T12:00:13;12.60;99.90
41944;DHT22;27636;52.610;13.244;2024-02-21T12:05:19;12.80;99.90
41944;DHT22;27636;52.610;13.244;2024-02-21T12:10:26;13.00;99.90
41944;DHT22;27636;52.610;13.244;2024-02-21T12:15:31;13.10;99.90
41944;DHT22;27636;52.610;13.244;2024-02-21T12:20:38;13.30;99.90
41944;DHT22;27636;52.610;13.244;2024-02-21T12:25:46;13.40;99.90
41944;DHT22;27636;52.610;13.244;2024-02-21T12:30:50;13.90;99.90
41944;DHT22;27636;52.610;13.244;2024-02-21T12:35:56;13.50;99.90
41944;DHT22;27636;52.610;13.244;2024-02-21T12:41:02;13.60;99.90
41944;DHT22;27636;52.610;13.244;2024-02-21T12:46:09;14.30;99.90
41944;DHT22;27636;52.610;13.244;2024-02-21T12:51:14;14.10;99.90
41944;DHT22;27636;52.610;13.244;2024-02-21T12:56:20;15.00;99.90
41944;DHT22;27636;52.610;13.244;2024-02-21T13:01:24;15.60;99.90
41944;DHT22;27636;52.610;13.244;2024-02-21T13:06:29;14.50;99.90
41944;DHT22;27636;52.610;13.244;2024-02-21T13:11:35;14.40;99.90
41944;DHT22;27636;52.610;13.244;2024-02-21T13:16:40;14.70;99.90
41944;DHT22;27636;52.610;13.244;2024-02-21T13:21:45;14.20;99.90
41944;DHT22;27636;52.610;13.244;2024-02-21T13:26:51;14.10;99.90
41944;DHT22;27636;52.610;13.244;2024-02-21T13:31:56;14.10;99.90
41944;DHT22;27636;52.610;13.244;2024-02-21T13:37:00;14.00;99.90
41944;DHT22;27636;52.610;13.244;2024-02-21T13:42:06;13.60;99.90
41944;DHT22;27636;52.610;13.244;2024-02-21T13:47:10;13.30;99.90
41944;DHT22;27636;52.610;13.244;2024-02-21T13:52:21;13.00;99.90
41944;DHT22;27636;52.610;13.244;2024-02-21T13:57:26;12.80;99.90
41944;DHT22;27636;52.610;13.244;2024-02-21T14:02:29;12.70;99.90
41944;DHT22;27636;52.610;13.244;2024-02-21T14:07:34;12.50;99.90
41944;DHT22;27636;52.610;13.244;2024-02-21T14:12:40;12.50;99.90
41944;DHT22;27636;52.610;13.244;2024-02-21T14:17:44;12.10;99.90
41944;DHT22;27636;52.610;13.244;2024-02-21T14:22:49;12.00;99.90
41944;DHT22;27636;52.610;13.244;2024-02-21T14:27:54;12.00;99.90
41944;DHT22;27636;52.610;13.244;2024-02-21T14:32:58;12.00;99.90
41944;DHT22;27636;52.610;13.244;2024-02-21T14:38:07;12.00;99.90
41944;DHT22;27636;52.610;13.244;2024-02-21T14:43:12;11.90;99.90
41944;DHT22;27636;52.610;13.244;2024-02-21T14:48:17;12.00;99.90
41944;DHT22;27636;52.610;13.244;2024-02-21T14:53:21;12.00;99.90
41944;DHT22;27636;52.610;13.244;2024-02-21T14:58:27;11.80;99.90
41944;DHT22;27636;52.610;13.244;2024-02-21T15:03:32;11.80;99.90
41944;DHT22;27636;52.610;13.244;2024-02-21T15:08:36;11.80;99.90
41944;DHT22;27636;52.610;13.244;2024-02-21T15:13:43;12.00;99.90
41944;DHT22;27636;52.610;13.244;2024-02-21T15:18:47;11.90;99.90
41944;DHT22;27636;52.610;13.244;2024-02-21T15:23:52;11.80;99.90
41944;DHT22;27636;52.610;13.244;2024-02-21T15:28:59;11.80;99.90
41944;DHT22;27636;52.610;13.244;2024-02-21T15:34:03;11.70;99.90
41944;DHT22;27636;52.610;13.244;2024-02-21T15:39:07;11.60;99.90
41944;DHT22;27636;52.610;13.244;2024-02-21T15:44:13;11.30;99.90
41944;DHT22;27636;52.610;13.244;2024-02-21T15:49:17;11.00;99.90
41944;DHT22;27636;52.610;13.244;2024-02-21T15:54:21;10.70;99.90
41944;DHT22;27636;52.610;13.244;2024-02-21T15:59:31;10.50;99.90
41944;DHT22;27636;52.610;13.244;2024-02-21T16:04:36;10.30;99.90
41944;DHT22;27636;52.610;13.244;2024-02-21T16:09:39;9.90;99.90
41944;DHT22;27636;52.610;13.244;2024-02-21T16:14:49;9.50;99.90
41944;DHT22;27636;52.610;13.244;2024-02-21T16:19:53;9.30;99.90
41944;DHT22;27636;52.610;13.244;2024-02-21T16:24:57;9.30;99.90
41944;DHT22;27636;52.610;13.244;2024-02-21T16:30:03;9.10;99.90
41944;DHT22;27636;52.610;13.244;2024-02-21T16:35:11;8.60;99.90
41944;DHT22;27636;52.610;13.244;2024-02-21T16:40:16;8.40;99.90
41944;DHT22;27636;52.610;13.244;2024-02-21T16:45:23;8.20;99.90
41944;DHT22;27636;52.610;13.244;2024-02-21T16:50:28;8.00;99.90
41944;DHT22;27636;52.610;13.244;2024-02-21T16:55:31;7.80;99.90
41944;DHT22;27636;52.610;13.244;2024-02-21T17:00:39;7.50;99.90
41944;DHT22;27636;52.610;13.244;2024-02-21T17:05:44;7.40;99.90
41944;DHT22;27636;52.610;13.244;2024-02-21T17:10:54;7.40;99.90
41944;DHT22;27636;52.610;13.244;2024-02-21T17:15:59;8.00;99.90
41944;DHT22;27636;52.610;13.244;2024-02-21T17:21:05;8.30;99.90
41944;DHT22;27636;52.610;13.244;2024-02-21T17:26:09;8.40;99.90
41944;DHT22;27636;52.610;13.244;2024-02-21T17:31:15;8.50;99.90
41944;DHT22;27636;52.610;13.244;2024-02-21T17:36:20;8.40;99.90
41944;DHT22;27636;52.610;13.244;2024-02-21T17:41:24;8.10;99.90
41944;DHT22;27636;52.610;13.244;2024-02-21T17:46:30;8.00;99.90
41944;DHT22;27636;52.610;13.244;2024-02-21T17:51:35;7.90;99.90
41944;DHT22;27636;52.610;13.244;2024-02-21T17:56:39;8.00;99.90
41944;DHT22;27636;52.610;13.244;2024-02-21T18:01:44;7.80;99.90
41944;DHT22;27636;52.610;13.244;2024-02-21T18:06:48;7.40;99.90
41944;DHT22;27636;52.610;13.244;2024-02-21T18:11:52;7.40;99.90
41944;DHT22;27636;52.610;13.244;2024-02-21T18:16:58;7.30;99.90
41944;DHT22;27636;52.610;13.244;2024-02-21T18:22:04;7.20;99.90
41944;DHT22;27636;52.610;13.244;2024-02-21T18:27:08;7.10;99.90
41944;DHT22;27636;52.610;13.244;2024-02-21T18:32:14;7.10;99.90
41944;DHT22;27636;52.610;13.244;2024-02-21T18:37:18;7.10;99.90
41944;DHT22;27636;52.610;13.244;2024-02-21T18:42:22;7.50;99.90
41944;DHT22;27636;52.610;13.244;2024-02-21T18:47:28;7.60;99.90
41944;DHT22;27636;52.610;13.244;2024-02-21T18:52:33;7.60;99.90
41944;DHT22;27636;52.610;13.244;2024-02-21T18:57:37;7.70;99.90
41944;DHT22;27636;52.610;13.244;2024-02-21T19:02:42;7.50;99.90
41944;DHT22;27636;52.610;13.244;2024-02-21T19:07:47;7.60;99.90
41944;DHT22;27636;52.610;13.244;2024-02-21T19:12:53;7.60;99.90
41944;DHT22;27636;52.610;13.244;2024-02-21T19:17:58;7.60;99.90
41944;DHT22;27636;52.610;13.244;2024-02-21T19:23:03;7.60;99.90
41944;DHT22;27636;52.610;13.244;2024-02-21T19:28:09;7.60;99.90
41944;DHT22;27636;52.610;13.244;2024-02-21T19:33:18;7.60;99.90
41944;DHT22;27636;52.610;13.244;2024-02-21T19:38:22;7.70;99.90
41944;DHT22;27636;52.610;13.244;2024-02-21T19:43:28;7.70;99.90
41944;DHT22;27636;52.610;13.244;2024-02-21T19:48:33;7.80;99.90
41944;DHT22;27636;52.610;13.244;2024-02-21T19:53:37;7.60;99.90
41944;DHT22;27636;52.610;13.244;2024-02-21T19:58:41;7.60;99.90
41944;DHT22;27636;52.610;13.244;2024-02-21T20:03:47;7.70;99.90
41944;DHT22;27636;52.610;13.244;2024-02-21T20:08:52;7.90;99.90
41944;DHT22;27636;52.610;13.244;2024-02-21T20:13:56;7.90;99.90
41944;DHT22;27636;52.610;13.244;2024-02-21T20:19:02;7.90;99.90
41944;DHT22;27636;52.610;13.244;2024-02-21T20:24:07;7.90;99.90
41944;DHT22;27636;52.610;13.244;2024-02-21T20:29:16;8.00;99.90
41944;DHT22;27636;52.610;13.244;2024-02-21T20:34:23;8.00;99.90
41944;DHT22;27636;52.610;13.244;2024-02-21T20:39:32;8.00;99.90
41944;DHT22;27636;52.610;13.244;2024-02-21T20:44:38;8.00;99.90
41944;DHT22;27636;52.610;13.244;2024-02-21T20:49:44;8.00;99.90
41944;DHT22;27636;52.610;13.244;2024-02-21T20:54:48;8.00;99.90
41944;DHT22;27636;52.610;13.244;2024-02-21T20:59:52;8.10;99.90
41944;DHT22;27636;52.610;13.244;2024-02-21T21:04:59;8.00;99.90
41944;DHT22;27636;52.610;13.244;2024-02-21T21:10:03;8.00;99.90
41944;DHT22;27636;52.610;13.244;2024-02-21T21:15:08;8.10;99.90
41944;DHT22;27636;52.610;13.244;2024-02-21T21:20:15;8.00;99.90
41944;DHT22;27636;52.610;13.244;2024-02-21T21:25:20;8.00;99.90
41944;DHT22;27636;52.610;13.244;2024-02-21T21:30:26;8.20;99.90
41944;DHT22;27636;52.610;13.244;2024-02-21T21:35:31;8.20;99.90
41944;DHT22;27636;52.610;13.244;2024-02-21T21:40:38;8.20;99.90
41944;DHT22;27636;52.610;13.244;2024-02-21T21:45:44;8.30;99.90
41944;DHT22;27636;52.610;13.244;2024-02-21T21:50:53;8.40;99.90
41944;DHT22;27636;52.610;13.244;2024-02-21T21:55:57;8.40;99.90
41944;DHT22;27636;52.610;13.244;2024-02-21T22:01:01;8.30;99.90
41944;DHT22;27636;52.610;13.244;2024-02-21T22:06:06;8.50;99.90
41944;DHT22;27636;52.610;13.244;2024-02-21T22:11:10;8.50;99.90
41944;DHT22;27636;52.610;13.244;2024-02-21T22:16:18;8.50;99.90
41944;DHT22;27636;52.610;13.244;2024-02-21T22:21:23;8.50;99.90
41944;DHT22;27636;52.610;13.244;2024-02-21T22:26:27;8.40;99.90
41944;DHT22;27636;52.610;13.244;2024-02-21T22:31:31;8.30;99.90
41944;DHT22;27636;52.610;13.244;2024-02-21T22:36:36;8.40;99.90
41944;DHT22;27636;52.610;13.244;2024-02-21T22:41:42;8.50;99.90
41944;DHT22;27636;52.610;13.244;2024-02-21T22:46:48;8.50;99.90
41944;DHT22;27636;52.610;13.244;2024-02-21T22:51:57;8.30;99.90
41944;DHT22;27636;52.610;13.244;2024-02-21T22:57:02;8.30;99.90
41944;DHT22;27636;52.610;13.244;2024-02-21T23:02:06;8.30;99.90
41944;DHT22;27636;52.610;13.244;2024-02-21T23:07:12;8.40;99.90
41944;DHT22;27636;52.610;13.244;2024-02-21T23:12:16;8.30;99.90
41944;DHT22;27636;52.610;13.244;2024-02-21T23:17:22;8.30;99.90
41944;DHT22;27636;52.610;13.244;2024-02-21T23:22:28;8.30;99.90
41944;DHT22;27636;52.610;13.244;2024-02-21T23:27:31;8.50;99.90
41944;DHT22;27636;52.610;13.244;2024-02-21T23:32:36;8.40;99.90
41944;DHT22;27636;52.610;13.244;2024-02-21T23:37:41;8.40;99.90
41944;DHT22;27636;52.610;13.244;2024-02-21T23:42:45;8.50;99.90
41944;DHT22;27636;52.610;13.244;2024-02-21T23:47:50;8.50;99.90
41944;DHT22;27636;52.610;13.244;2024-02-21T23:52:57;8.60;99.90
41944;DHT22;27636;52.610;13.244;2024-02-21T23:58:00;8.60;99.90
